sensor_id;sensor_type;location;lat;lon;timestamp;pressure;altitude;pressure_sealevel;temperature;humidity
39699;BME280;25372;50.582;12.250;2023-04-07T00:07:25;100083.69;;;-2.12;79.20
39699;BME280;25372;50.582;12.250;2023-04-07T00:17:47;100091.53;;;-2.29;82.34
39699;BME280;25372;50.582;12.250;2023-04-07T00:28:08;100072.00;;;-2.61;82.88
39699;BME280;25372;50.582;12.250;2023-04-07T00:38:33;100064.28;;;-2.60;81.84
39699;BME280;25372;50.582;12.250;2023-04-07T00:48:54;100056.66;;;-2.80;82.23
39699;BME280;25372;50.582;12.250;2023-04-07T00:59:17;100052.50;;;-3.06;83.48
39699;BME280;25372;50.582;12.250;2023-04-07T01:09:44;100035.31;;;-2.96;82.24
39699;BME280;25372;50.582;12.250;2023-04-07T01:20:11;100036.25;;;-3.16;83.14
39699;BME280;25372;50.582;12.250;2023-04-07T01:30:39;100010.69;;;-3.53;83.02
39699;BME280;25372;50.582;12.250;2023-04-07T01:41:00;100006.44;;;-3.63;83.67
39699;BME280;25372;50.582;12.250;2023-04-07T01:51:24;99990.25;;;-3.97;84.16
39699;BME280;25372;50.582;12.250;2023-04-07T02:01:46;100011.53;;;-3.42;83.80
39699;BME280;25372;50.582;12.250;2023-04-07T02:12:11;99998.75;;;-3.63;83.68
39699;BME280;25372;50.582;12.250;2023-04-07T13:08:34;99910.00;;;11.85;37.13
39699;BME280;25372;50.582;12.250;2023-04-07T13:18:55;99916.25;;;11.16;38.90
39699;BME280;25372;50.582;12.250;2023-04-07T13:29:17;99910.00;;;10.76;40.79
39699;BME280;25372;50.582;12.250;2023-04-07T13:39:37;99904.03;;;10.87;39.41
39699;BME280;25372;50.582;12.250;2023-04-07T13:50:00;99893.03;;;11.63;39.71
39699;BME280;25372;50.582;12.250;2023-04-07T14:00:21;99892.06;;;10.83;39.64
39699;BME280;25372;50.582;12.250;2023-04-07T14:10:44;99883.19;;;10.28;39.68
39699;BME280;25372;50.582;12.250;2023-04-07T14:21:04;99886.84;;;10.11;40.41
39699;BME280;25372;50.582;12.250;2023-04-07T14:31:27;99878.16;;;9.96;41.51
39699;BME280;25372;50.582;12.250;2023-04-07T14:41:47;99888.06;;;10.34;42.29
39699;BME280;25372;50.582;12.250;2023-04-07T14:52:09;99885.44;;;9.45;43.18
39699;BME280;25372;50.582;12.250;2023-04-07T15:02:32;99900.34;;;9.45;43.71
39699;BME280;25372;50.582;12.250;2023-04-07T15:12:54;99889.50;;;9.04;44.33
39699;BME280;25372;50.582;12.250;2023-04-07T15:23:15;99892.66;;;8.79;44.36
39699;BME280;25372;50.582;12.250;2023-04-07T15:33:38;99892.75;;;8.28;45.11
39699;BME280;25372;50.582;12.250;2023-04-07T16:07:11;99920.78;;;7.39;47.62
39699;BME280;25372;50.582;12.250;2023-04-07T16:17:32;99909.53;;;7.19;49.83
39699;BME280;25372;50.582;12.250;2023-04-07T16:28:28;99928.63;;;6.83;51.15
39699;BME280;25372;50.582;12.250;2023-04-07T17:11:23;99973.81;;;5.83;53.56
39699;BME280;25372;50.582;12.250;2023-04-07T17:44:03;100018.53;;;5.05;56.73
39699;BME280;25372;50.582;12.250;2023-04-07T17:54:25;100045.97;;;5.14;58.57
39699;BME280;25372;50.582;12.250;2023-04-07T18:04:48;100054.53;;;5.17;59.29
39699;BME280;25372;50.582;12.250;2023-04-07T18:15:09;100061.56;;;4.92;60.45
39699;BME280;25372;50.582;12.250;2023-04-07T18:25:30;100085.47;;;4.78;61.50
39699;BME280;25372;50.582;12.250;2023-04-07T18:35:51;100083.63;;;4.56;63.03
39699;BME280;25372;50.582;12.250;2023-04-07T18:46:13;100100.88;;;4.33;67.04
39699;BME280;25372;50.582;12.250;2023-04-07T18:56:34;100113.50;;;4.18;68.71
39699;BME280;25372;50.582;12.250;2023-04-07T19:06:56;100112.09;;;4.08;70.33
39699;BME280;25372;50.582;12.250;2023-04-07T19:17:17;100115.78;;;3.72;74.14
39699;BME280;25372;50.582;12.250;2023-04-07T19:27:39;100129.63;;;3.44;77.16
39699;BME280;25372;50.582;12.250;2023-04-07T19:38:00;100138.03;;;3.22;78.93
39699;BME280;25372;50.582;12.250;2023-04-07T19:48:24;100143.56;;;3.10;79.21
39699;BME280;25372;50.582;12.250;2023-04-07T19:58:46;100142.91;;;3.02;80.13
39699;BME280;25372;50.582;12.250;2023-04-07T20:09:08;100140.00;;;3.13;80.63
39699;BME280;25372;50.582;12.250;2023-04-07T20:19:29;100147.88;;;3.11;81.94
39699;BME280;25372;50.582;12.250;2023-04-07T20:29:51;100140.31;;;3.02;80.22
39699;BME280;25372;50.582;12.250;2023-04-07T20:40:11;100142.41;;;2.89;79.86
39699;BME280;25372;50.582;12.250;2023-04-07T20:50:34;100145.91;;;2.86;79.64
39699;BME280;25372;50.582;12.250;2023-04-07T21:00:57;100139.03;;;2.85;81.07
39699;BME280;25372;50.582;12.250;2023-04-07T21:11:20;100137.22;;;2.89;81.24
39699;BME280;25372;50.582;12.250;2023-04-07T21:21:40;100144.19;;;2.87;80.94
39699;BME280;25372;50.582;12.250;2023-04-07T21:32:02;100136.66;;;2.76;82.86
39699;BME280;25372;50.582;12.250;2023-04-07T21:42:23;100139.66;;;2.62;83.33
39699;BME280;25372;50.582;12.250;2023-04-07T21:52:46;100142.59;;;2.48;84.40
39699;BME280;25372;50.582;12.250;2023-04-07T22:03:09;100141.84;;;2.43;85.67
39699;BME280;25372;50.582;12.250;2023-04-07T22:13:31;100133.59;;;2.61;86.56
39699;BME280;25372;50.582;12.250;2023-04-07T22:23:52;100140.66;;;2.56;86.29
39699;BME280;25372;50.582;12.250;2023-04-07T22:34:13;100136.28;;;2.58;86.41
39699;BME280;25372;50.582;12.250;2023-04-07T22:44:34;100144.19;;;2.54;86.25
39699;BME280;25372;50.582;12.250;2023-04-07T22:54:56;100142.63;;;2.46;87.31
39699;BME280;25372;50.582;12.250;2023-04-07T23:05:17;100151.38;;;2.42;87.74
39699;BME280;25372;50.582;12.250;2023-04-07T23:15:39;100152.72;;;2.57;87.45
39699;BME280;25372;50.582;12.250;2023-04-07T23:26:00;100140.72;;;2.53;87.96
39699;BME280;25372;50.582;12.250;2023-04-07T23:36:22;100143.28;;;2.55;88.25
39699;BME280;25372;50.582;12.250;2023-04-07T23:46:42;100137.97;;;2.59;87.98
39699;BME280;25372;50.582;12.250;2023-04-07T23:57:05;100138.00;;;2.58;88.38
